Time;durP1;ratioP1;P1;durP2;ratioP2;P2;SDS_P1;SDS_P2;PMS_P1;PMS_P2;Temp;Humidity;BMP_temperature;BMP_pressure;BME280_temperature;BME280_humidity;BME280_pressure;Samples;Min_cycle;Max_cycle;Signal;HPM_P1;HPM_P2
2022/08/26 00:01:58;;;;;;;6.22;4.88;;;22.70;55.80;;;;;;5003903;28;20037;-77
2022/08/26 00:04:24;;;;;;;6.25;5.07;;;22.60;56.40;;;;;;4987613;28;20223;-78
2022/08/26 00:06:50;;;;;;;8.20;4.95;;;22.60;55.90;;;;;;4962694;28;20052;-78
2022/08/26 00:09:15;;;;;;;10.35;5.13;;;22.60;56.00;;;;;;4982816;28;20038;-78
2022/08/26 00:11:41;;;;;;;7.50;4.90;;;22.50;55.90;;;;;;4984300;28;20045;-78
2022/08/26 00:14:06;;;;;;;8.93;4.60;;;22.50;56.10;;;;;;4994144;28;20049;-78
2022/08/26 00:16:32;;;;;;;8.32;4.72;;;22.50;56.20;;;;;;4996307;28;20427;-78
2022/08/26 00:18:58;;;;;;;8.63;5.05;;;22.40;56.30;;;;;;4970880;28;20507;-78
2022/08/26 00:21:23;;;;;;;6.05;4.53;;;22.40;56.40;;;;;;5002163;28;20062;-78
2022/08/26 00:23:49;;;;;;;7.25;4.65;;;22.40;56.50;;;;;;4999968;28;20038;-78
2022/08/26 00:26:14;;;;;;;9.43;5.18;;;22.30;56.50;;;;;;5009044;28;20034;-78
2022/08/26 00:28:40;;;;;;;7.00;4.72;;;22.30;56.60;;;;;;4998363;28;20038;-78
2022/08/26 00:31:05;;;;;;;6.22;5.40;;;22.30;56.70;;;;;;4985287;28;20469;-78
2022/08/26 00:33:31;;;;;;;7.85;5.25;;;22.30;56.70;;;;;;5002843;28;20679;-78
2022/08/26 00:35:57;;;;;;;8.88;4.85;;;22.20;56.70;;;;;;4987892;28;20033;-78
2022/08/26 00:38:22;;;;;;;5.63;4.80;;;22.20;56.80;;;;;;5002889;28;20043;-78
2022/08/26 00:40:54;;;;;;;10.93;5.20;;;22.10;56.90;;;;;;5002061;28;20541;-78
2022/08/26 00:43:21;;;;;;;7.15;5.00;;;22.10;57.20;;;;;;4988793;28;20656;-77
2022/08/26 00:45:50;;;;;;;8.90;4.88;;;22.10;57.10;;;;;;4969609;28;20052;-78
2022/08/26 00:48:17;;;;;;;7.97;4.90;;;22.10;57.10;;;;;;4971226;28;20154;-77
2022/08/26 00:50:48;;;;;;;5.68;4.88;;;22.00;57.20;;;;;;4989500;28;20034;-78
2022/08/26 00:53:22;;;;;;;8.80;5.15;;;22.00;57.30;;;;;;4981520;28;20150;-78
2022/08/26 00:55:58;;;;;;;8.98;4.78;;;22.00;57.30;;;;;;4999948;28;20120;-78
2022/08/26 00:58:24;;;;;;;10.05;5.80;;;21.90;57.40;;;;;;4977145;28;20036;-78
2022/08/26 01:00:49;;;;;;;9.75;5.15;;;21.90;57.40;;;;;;4969859;28;20436;-78
2022/08/26 01:03:15;;;;;;;6.43;5.03;;;21.80;57.60;;;;;;4988655;28;20057;-78
2022/08/26 01:05:41;;;;;;;5.85;4.88;;;21.80;57.70;;;;;;4977827;28;20060;-77
2022/08/26 01:08:06;;;;;;;10.55;4.60;;;21.80;57.70;;;;;;4977917;28;20084;-78
2022/08/26 01:10:32;;;;;;;11.07;5.32;;;21.70;57.80;;;;;;4981736;28;20026;-78
2022/08/26 01:13:00;;;;;;;7.35;5.07;;;21.70;57.80;;;;;;4980227;28;20042;-78
2022/08/26 01:15:31;;;;;;;9.48;4.97;;;21.70;57.90;;;;;;4980394;28;20050;-77
2022/08/26 01:17:57;;;;;;;5.70;4.38;;;21.60;58.00;;;;;;4983507;28;20054;-77
2022/08/26 01:20:40;;;;;;;6.22;5.25;;;21.60;58.00;;;;;;4983556;28;20034;-78
2022/08/26 01:23:07;;;;;;;7.35;4.30;;;21.60;58.40;;;;;;4990372;28;20096;-78
2022/08/26 01:25:33;;;;;;;8.90;5.68;;;21.60;58.20;;;;;;4954677;28;20049;-78
2022/08/26 01:28:00;;;;;;;8.07;4.72;;;21.50;58.20;;;;;;4968035;28;20424;-78
2022/08/26 01:30:26;;;;;;;8.48;4.93;;;21.50;58.40;;;;;;4982191;28;20042;-77
2022/08/26 01:32:53;;;;;;;7.15;4.95;;;21.40;58.40;;;;;;4999088;28;20036;-78
2022/08/26 01:35:19;;;;;;;8.90;5.40;;;21.40;58.50;;;;;;4997641;28;20118;-78
2022/08/26 01:37:44;;;;;;;6.82;5.20;;;21.40;58.60;;;;;;4997464;28;20120;-78
2022/08/26 01:40:20;;;;;;;7.28;5.00;;;21.30;58.60;;;;;;4974088;28;20026;-78
2022/08/26 01:42:47;;;;;;;9.77;5.50;;;21.30;58.70;;;;;;4983503;28;20045;-77
2022/08/26 01:45:18;;;;;;;7.50;4.95;;;21.30;58.80;;;;;;4999872;28;20034;-77
2022/08/26 01:47:44;;;;;;;6.18;4.75;;;21.20;58.90;;;;;;4989239;28;20397;-78
2022/08/26 01:50:15;;;;;;;11.75;5.90;;;21.20;58.90;;;;;;5008884;28;20112;-78
2022/08/26 01:52:42;;;;;;;11.60;5.35;;;21.20;59.00;;;;;;5006390;28;20046;-78
2022/08/26 01:55:08;;;;;;;9.88;6.25;;;21.10;59.00;;;;;;4964190;28;20033;-78
2022/08/26 01:57:34;;;;;;;6.53;5.30;;;21.10;59.30;;;;;;4961547;28;20092;-77
2022/08/26 02:00:00;;;;;;;7.95;5.63;;;21.00;60.20;;;;;;4979229;28;20025;-78
2022/08/26 02:02:25;;;;;;;6.95;4.90;;;21.00;59.50;;;;;;4979600;28;20145;-78
2022/08/26 02:04:53;;;;;;;8.73;5.15;;;21.00;59.60;;;;;;4996658;28;20125;-78
2022/08/26 02:07:19;;;;;;;10.10;6.28;;;21.00;59.60;;;;;;4995026;28;20084;-77
2022/08/26 02:09:45;;;;;;;6.85;5.05;;;20.90;59.70;;;;;;4974788;28;20034;-78
2022/08/26 02:12:11;;;;;;;7.22;4.70;;;20.90;59.70;;;;;;5000927;28;20044;-78
2022/08/26 02:14:40;;;;;;;7.00;5.53;;;20.90;59.70;;;;;;4981998;28;20508;-77
2022/08/26 02:17:06;;;;;;;8.57;5.10;;;20.90;59.80;;;;;;5011704;28;20050;-78
2022/08/26 02:19:33;;;;;;;6.53;4.88;;;20.80;59.90;;;;;;4978791;28;20042;-78
2022/08/26 02:22:01;;;;;;;6.63;4.97;;;20.80;60.00;;;;;;4984257;28;20037;-78
2022/08/26 02:24:28;;;;;;;6.80;5.25;;;20.80;60.10;;;;;;4999302;28;20053;-78
2022/08/26 02:26:54;;;;;;;6.70;5.57;;;20.70;60.10;;;;;;4978772;28;20112;-78
2022/08/26 02:29:31;;;;;;;5.97;4.80;;;20.70;60.30;;;;;;4989896;28;20041;-78
2022/08/26 02:31:57;;;;;;;9.95;5.63;;;20.70;60.70;;;;;;4984888;28;20057;-77
2022/08/26 02:34:28;;;;;;;9.13;5.38;;;20.60;60.30;;;;;;4991547;28;20475;-77
2022/08/26 02:36:55;;;;;;;6.80;5.35;;;20.60;60.60;;;;;;4974081;28;20396;-78
2022/08/26 02:39:21;;;;;;;5.68;4.75;;;20.60;60.60;;;;;;4999442;28;20033;-78
2022/08/26 02:41:47;;;;;;;6.68;4.85;;;20.60;60.60;;;;;;4981525;28;20053;-77
2022/08/26 02:44:12;;;;;;;11.45;5.15;;;20.50;60.60;;;;;;4993034;28;20042;-77
2022/08/26 02:46:38;;;;;;;8.55;5.18;;;20.50;60.70;;;;;;5003206;28;20034;-78
2022/08/26 02:49:03;;;;;;;6.47;5.20;;;20.50;60.70;;;;;;4950268;28;20578;-78
2022/08/26 02:51:29;;;;;;;7.45;5.07;;;20.40;60.80;;;;;;4989291;28;20033;-77
2022/08/26 02:53:55;;;;;;;5.95;5.13;;;20.40;61.00;;;;;;4986645;28;20034;-77
2022/08/26 02:56:21;;;;;;;8.23;5.60;;;20.40;61.10;;;;;;4983079;28;20091;-77
2022/08/26 02:58:47;;;;;;;7.60;5.50;;;20.40;61.20;;;;;;4967053;28;20438;-78
2022/08/26 03:01:23;;;;;;;6.63;5.38;;;20.30;61.30;;;;;;4992066;28;20034;-78
2022/08/26 03:03:48;;;;;;;7.22;5.45;;;20.30;61.70;;;;;;4974798;28;20081;-78
2022/08/26 03:06:14;;;;;;;7.07;4.88;;;20.30;61.40;;;;;;4995407;28;20519;-78
2022/08/26 03:08:39;;;;;;;6.25;4.80;;;20.30;61.50;;;;;;5004543;28;20041;-78
2022/08/26 03:11:05;;;;;;;7.13;5.07;;;20.20;61.50;;;;;;4999178;28;20054;-77
2022/08/26 03:13:31;;;;;;;6.65;5.68;;;20.20;61.70;;;;;;4996077;28;20096;-78
2022/08/26 03:15:56;;;;;;;9.70;5.55;;;20.20;61.60;;;;;;4996392;28;20052;-77
2022/08/26 03:18:22;;;;;;;8.93;5.78;;;20.20;61.70;;;;;;4998621;28;20029;-77
2022/08/26 03:20:47;;;;;;;7.70;5.35;;;20.10;61.70;;;;;;4983380;28;20038;-78
2022/08/26 03:23:13;;;;;;;8.23;4.90;;;20.10;61.80;;;;;;4993968;28;20038;-77
2022/08/26 03:25:38;;;;;;;8.73;5.32;;;20.10;62.10;;;;;;4999954;28;20084;-77
2022/08/26 03:28:04;;;;;;;12.45;5.95;;;20.10;62.20;;;;;;5005768;28;20587;-77
2022/08/26 03:30:39;;;;;;;6.85;5.40;;;20.00;62.10;;;;;;5006919;28;20095;-77
2022/08/26 03:33:05;;;;;;;8.45;5.55;;;20.00;62.10;;;;;;5009663;28;20038;-77
2022/08/26 03:35:31;;;;;;;10.57;5.22;;;20.00;62.30;;;;;;4986513;28;20065;-77
2022/08/26 03:37:57;;;;;;;8.32;5.60;;;20.00;62.40;;;;;;4985314;28;20152;-78
2022/08/26 03:40:23;;;;;;;6.07;4.85;;;19.90;63.30;;;;;;5029336;28;20116;-77
2022/08/26 03:42:48;;;;;;;6.82;5.40;;;19.90;62.50;;;;;;4983165;28;20110;-78
2022/08/26 03:45:14;;;;;;;8.18;5.38;;;19.90;62.60;;;;;;5007622;28;20026;-77
2022/08/26 03:47:40;;;;;;;7.65;5.57;;;19.90;62.70;;;;;;4993227;28;20057;-77
2022/08/26 03:50:06;;;;;;;7.80;5.22;;;19.80;62.80;;;;;;4990764;28;20084;-77
2022/08/26 03:52:32;;;;;;;8.05;5.00;;;19.80;62.90;;;;;;4988325;28;20037;-78
2022/08/26 03:54:58;;;;;;;6.68;4.60;;;19.80;62.90;;;;;;4984740;28;20022;-78
2022/08/26 03:57:23;;;;;;;7.30;5.05;;;19.80;63.00;;;;;;5002381;28;20069;-78
2022/08/26 03:59:49;;;;;;;8.27;5.38;;;19.70;63.00;;;;;;5016773;28;20050;-78
2022/08/26 04:02:14;;;;;;;7.45;5.22;;;19.70;63.10;;;;;;4995944;28;20030;-78
2022/08/26 04:04:40;;;;;;;10.60;5.28;;;19.70;63.30;;;;;;4975811;28;20125;-78
2022/08/26 04:07:06;;;;;;;11.60;5.32;;;19.70;63.40;;;;;;4990450;28;20046;-78
2022/08/26 04:09:31;;;;;;;7.40;5.50;;;19.60;63.50;;;;;;4959671;28;20042;-78
2022/08/26 04:11:57;;;;;;;10.65;5.43;;;19.60;63.60;;;;;;4987899;28;20108;-78
2022/08/26 04:14:23;;;;;;;7.07;5.55;;;19.60;63.60;;;;;;4988361;28;20068;-78
2022/08/26 04:16:50;;;;;;;6.90;5.50;;;19.60;63.70;;;;;;4987016;28;20576;-78
2022/08/26 04:19:16;;;;;;;9.85;5.82;;;19.50;63.80;;;;;;4990437;28;20037;-78
2022/08/26 04:21:42;;;;;;;6.95;4.90;;;19.50;63.90;;;;;;4998980;28;20044;-78
2022/08/26 04:24:09;;;;;;;7.65;5.20;;;19.50;63.90;;;;;;5002425;28;20045;-77
2022/08/26 04:26:37;;;;;;;6.95;5.35;;;19.50;64.10;;;;;;4983224;28;20187;-78
2022/08/26 04:29:07;;;;;;;8.23;5.68;;;19.50;64.20;;;;;;4977966;28;20111;-77
2022/08/26 04:31:33;;;;;;;9.85;5.60;;;19.40;64.20;;;;;;5000055;28;20033;-77
2022/08/26 04:33:59;;;;;;;5.90;5.28;;;19.40;64.30;;;;;;4985513;28;20114;-77
2022/08/26 04:36:24;;;;;;;9.50;5.63;;;19.40;64.40;;;;;;4993097;28;20037;-77
2022/08/26 04:38:50;;;;;;;7.90;5.60;;;19.40;64.50;;;;;;4969971;28;20123;-77
2022/08/26 04:41:16;;;;;;;10.30;5.85;;;19.40;64.60;;;;;;5000985;28;20450;-77
2022/08/26 04:43:42;;;;;;;9.98;5.90;;;19.40;64.80;;;;;;5002376;28;20042;-77
2022/08/26 04:46:08;;;;;;;8.85;6.38;;;19.30;64.70;;;;;;4983495;28;20040;-76
2022/08/26 04:48:34;;;;;;;9.85;5.60;;;19.30;64.90;;;;;;4973746;28;20132;-77
2022/08/26 04:51:00;;;;;;;7.10;5.68;;;19.30;64.90;;;;;;4995369;28;20702;-77
2022/08/26 04:53:26;;;;;;;7.30;5.65;;;19.30;65.90;;;;;;4986785;28;20049;-77
2022/08/26 04:55:51;;;;;;;6.88;5.35;;;19.30;65.20;;;;;;4991689;28;20069;-77
2022/08/26 04:58:17;;;;;;;6.60;5.85;;;19.30;65.30;;;;;;4997918;28;20064;-76
2022/08/26 05:00:47;;;;;;;7.43;5.65;;;19.30;65.30;;;;;;5005273;28;20040;-77
2022/08/26 05:03:12;;;;;;;9.43;6.07;;;19.30;65.60;;;;;;4997426;28;20061;-77
2022/08/26 05:05:40;;;;;;;11.40;6.28;;;19.30;65.50;;;;;;4997870;28;20111;-77
2022/08/26 05:08:05;;;;;;;7.25;5.88;;;19.30;65.60;;;;;;4991459;28;20040;-77
2022/08/26 05:10:33;;;;;;;10.00;5.40;;;19.30;65.80;;;;;;4998538;28;20046;-77
2022/08/26 05:12:59;;;;;;;10.55;5.95;;;19.20;65.90;;;;;;4997324;28;20578;-77
2022/08/26 05:15:24;;;;;;;8.02;5.85;;;19.20;65.90;;;;;;4979461;28;20046;-77
2022/08/26 05:17:50;;;;;;;12.10;6.57;;;19.20;66.10;;;;;;4978736;28;20030;-77
2022/08/26 05:20:15;;;;;;;8.20;5.70;;;19.20;66.20;;;;;;5001035;28;20036;-77
2022/08/26 05:22:41;;;;;;;14.30;6.00;;;19.20;66.40;;;;;;4997216;28;20172;-78
2022/08/26 05:25:07;;;;;;;7.13;6.05;;;19.30;66.40;;;;;;5003398;28;20056;-77
2022/08/26 05:27:32;;;;;;;8.25;6.07;;;19.30;66.30;;;;;;4991845;28;20041;-77
2022/08/26 05:29:58;;;;;;;7.97;5.68;;;19.30;66.30;;;;;;4994692;28;20055;-77
2022/08/26 05:32:24;;;;;;;9.02;5.85;;;19.20;66.30;;;;;;5005027;28;20034;-77
2022/08/26 05:34:54;;;;;;;8.93;6.30;;;19.20;66.20;;;;;;4978790;28;20042;-77
2022/08/26 05:37:20;;;;;;;10.25;6.22;;;19.30;66.40;;;;;;5002497;28;20038;-78
2022/08/26 05:39:46;;;;;;;10.43;5.88;;;19.30;66.50;;;;;;4967348;28;20447;-77
2022/08/26 05:42:11;;;;;;;10.40;6.07;;;19.30;66.60;;;;;;4978915;28;20030;-77
2022/08/26 05:44:37;;;;;;;8.85;5.93;;;19.30;66.60;;;;;;5002983;28;20103;-77
2022/08/26 05:47:03;;;;;;;9.93;7.03;;;19.30;66.70;;;;;;4996847;28;20088;-77
2022/08/26 05:49:28;;;;;;;7.68;6.18;;;19.30;66.80;;;;;;4985498;28;20092;-77
2022/08/26 05:51:54;;;;;;;9.13;6.32;;;19.30;67.00;;;;;;4970534;28;20034;-77
2022/08/26 05:54:19;;;;;;;10.45;6.75;;;19.40;67.10;;;;;;5000146;28;20149;-77
2022/08/26 05:56:45;;;;;;;7.70;6.32;;;19.40;67.10;;;;;;5007519;28;20033;-77
2022/08/26 05:59:13;;;;;;;7.15;5.55;;;19.40;67.10;;;;;;4993762;28;20046;-77
2022/08/26 06:01:39;;;;;;;8.52;5.47;;;19.50;67.10;;;;;;4978862;28;20412;-77
2022/08/26 06:04:04;;;;;;;13.63;6.57;;;19.50;67.00;;;;;;4971674;28;20040;-77
2022/08/26 06:06:32;;;;;;;10.35;6.57;;;19.60;67.10;;;;;;4983866;28;20103;-78
2022/08/26 06:08:58;;;;;;;10.00;6.68;;;19.60;67.00;;;;;;4982110;28;20034;-78
2022/08/26 06:11:24;;;;;;;12.75;7.22;;;19.70;67.20;;;;;;4990757;28;20037;-77
2022/08/26 06:13:50;;;;;;;9.35;6.40;;;19.70;67.10;;;;;;5005804;28;20045;-77
2022/08/26 06:16:16;;;;;;;8.13;6.88;;;19.80;67.20;;;;;;5001136;28;20034;-77
2022/08/26 06:18:44;;;;;;;9.15;6.50;;;19.90;67.30;;;;;;4976516;28;20042;-77
2022/08/26 06:21:18;;;;;;;12.63;6.78;;;19.90;67.30;;;;;;4971371;28;20105;-78
2022/08/26 06:26:28;;;;;;;11.13;7.22;;;20.10;67.40;;;;;;4994744;28;20569;-78
2022/08/26 06:28:54;;;;;;;12.93;7.00;;;20.20;67.40;;;;;;4994488;28;20499;-78
2022/08/26 06:31:21;;;;;;;15.25;7.10;;;20.30;67.30;;;;;;4980963;28;20034;-78
2022/08/26 06:33:46;;;;;;;10.93;7.03;;;20.30;67.20;;;;;;4980369;28;20045;-78
2022/08/26 06:36:19;;;;;;;10.70;7.25;;;20.40;67.30;;;;;;5008438;28;20887;-77
2022/08/26 06:38:46;;;;;;;12.98;7.80;;;20.40;67.40;;;;;;4991819;28;20117;-78
2022/08/26 06:41:12;;;;;;;14.05;7.63;;;20.50;67.30;;;;;;4962201;28;20048;-78
2022/08/26 06:43:37;;;;;;;10.80;7.28;;;20.60;67.20;;;;;;4968663;28;20049;-78
2022/08/26 06:46:05;;;;;;;11.50;7.30;;;20.60;67.20;;;;;;5001519;28;20584;-78
2022/08/26 06:48:31;;;;;;;10.45;6.75;;;20.70;67.20;;;;;;4994962;28;20041;-78
2022/08/26 06:51:16;;;;;;;10.45;6.40;;;20.80;67.10;;;;;;4996851;28;20435;-78
2022/08/26 06:53:44;;;;;;;12.15;6.47;;;20.90;67.20;;;;;;4985561;28;20070;-78
2022/08/26 06:56:10;;;;;;;19.23;7.28;;;21.10;66.80;;;;;;4985375;28;20472;-78
2022/08/26 06:58:36;;;;;;;11.05;7.07;;;21.20;66.80;;;;;;4981750;28;20105;-78
2022/08/26 07:01:02;;;;;;;13.20;7.53;;;21.30;66.60;;;;;;4997910;28;20052;-78
2022/08/26 07:03:27;;;;;;;18.20;6.95;;;21.40;66.40;;;;;;4966850;28;20622;-78
2022/08/26 07:05:55;;;;;;;19.20;7.18;;;21.50;66.30;;;;;;4998052;28;20908;-78
2022/08/26 07:08:21;;;;;;;15.15;7.18;;;21.70;66.20;;;;;;4985213;28;20042;-78
2022/08/26 07:10:46;;;;;;;16.20;6.93;;;21.70;66.00;;;;;;5003763;28;20046;-78
2022/08/26 07:13:12;;;;;;;16.08;7.35;;;21.90;65.80;;;;;;5011619;28;20030;-78
2022/08/26 07:15:41;;;;;;;16.80;7.03;;;22.00;65.70;;;;;;4942868;28;1197259;-78
2022/08/26 07:18:08;;;;;;;14.27;6.95;;;22.20;65.60;;;;;;4980148;28;20041;-78
2022/08/26 07:20:39;;;;;;;22.92;8.07;;;22.30;65.20;;;;;;4984280;28;20517;-78
2022/08/26 07:23:05;;;;;;;16.70;7.97;;;22.50;65.20;;;;;;4984800;28;20554;-78
2022/08/26 07:25:31;;;;;;;17.65;7.15;;;22.70;65.60;;;;;;4996510;28;20782;-78
2022/08/26 07:27:56;;;;;;;15.02;7.20;;;22.90;64.60;;;;;;4974939;28;20140;-78
2022/08/26 07:30:22;;;;;;;16.17;7.68;;;23.00;64.20;;;;;;4978422;28;20114;-78
2022/08/26 07:32:48;;;;;;;16.83;6.70;;;23.20;63.90;;;;;;5001614;28;20066;-78
2022/08/26 07:35:14;;;;;;;19.17;7.75;;;23.40;63.60;;;;;;5004801;28;20068;-78
2022/08/26 07:37:39;;;;;;;17.58;7.72;;;23.60;63.30;;;;;;4980388;28;20041;-78
2022/08/26 07:40:05;;;;;;;18.33;7.45;;;23.80;63.10;;;;;;4996085;28;20029;-78
2022/08/26 07:42:31;;;;;;;18.25;7.30;;;23.90;62.80;;;;;;5013811;28;20034;-78
2022/08/26 07:44:56;;;;;;;14.32;7.05;;;24.10;62.40;;;;;;4985454;28;20823;-78
2022/08/26 07:47:22;;;;;;;17.65;7.65;;;24.30;62.00;;;;;;4998863;28;20571;-78
2022/08/26 07:49:47;;;;;;;15.07;6.93;;;24.50;61.70;;;;;;5013813;28;20596;-78
2022/08/26 07:52:13;;;;;;;13.27;6.68;;;24.60;61.40;;;;;;4974609;28;20758;-78
2022/08/26 07:54:39;;;;;;;18.42;7.75;;;24.80;61.00;;;;;;4978243;28;20069;-78
2022/08/26 07:57:05;;;;;;;13.82;7.43;;;25.00;60.80;;;;;;5000551;28;20045;-79
2022/08/26 07:59:30;;;;;;;12.70;6.95;;;25.20;60.40;;;;;;5000986;28;20040;-79
2022/08/26 08:01:58;;;;;;;15.52;7.43;;;25.30;60.00;;;;;;4976894;28;20068;-78
2022/08/26 08:04:24;;;;;;;14.60;6.78;;;25.50;59.70;;;;;;4993059;28;20131;-79
2022/08/26 08:06:49;;;;;;;13.23;8.38;;;25.60;59.30;;;;;;5001515;28;21506;-78
2022/08/26 08:09:15;;;;;;;14.88;7.32;;;25.90;59.10;;;;;;5003550;28;20600;-79
2022/08/26 08:11:40;;;;;;;14.93;6.85;;;26.00;58.70;;;;;;5003457;28;20041;-78
2022/08/26 08:14:06;;;;;;;11.75;7.25;;;26.10;58.30;;;;;;5001739;28;20073;-78
2022/08/26 08:16:32;;;;;;;11.32;6.65;;;26.40;58.10;;;;;;4985207;28;20037;-78
2022/08/26 08:18:58;;;;;;;22.10;7.72;;;26.50;57.80;;;;;;5002461;28;20917;-78
2022/08/26 08:21:24;;;;;;;13.68;6.78;;;26.70;57.50;;;;;;4997937;28;20041;-79
2022/08/26 08:23:51;;;;;;;13.77;7.10;;;26.90;57.20;;;;;;4969730;28;20865;-79
2022/08/26 08:26:16;;;;;;;12.70;6.68;;;27.10;56.80;;;;;;4995467;28;20049;-79
2022/08/26 08:28:42;;;;;;;12.10;7.03;;;27.30;56.50;;;;;;5007414;28;20052;-79
2022/08/26 08:31:07;;;;;;;13.55;7.00;;;27.50;56.20;;;;;;5001900;28;20034;-79
2022/08/26 08:33:33;;;;;;;10.35;6.45;;;27.70;55.90;;;;;;4997304;28;20582;-79
2022/08/26 08:35:59;;;;;;;17.90;6.85;;;27.90;55.50;;;;;;4991294;28;20128;-79
2022/08/26 08:38:25;;;;;;;12.20;6.85;;;28.10;55.10;;;;;;4993410;28;20516;-79
2022/08/26 08:40:50;;;;;;;14.82;6.70;;;28.30;54.80;;;;;;4986879;28;20228;-79
2022/08/26 08:43:25;;;;;;;11.15;6.97;;;28.50;54.50;;;;;;5010078;28;20697;-79
2022/08/26 08:45:56;;;;;;;13.27;6.45;;;28.60;54.10;;;;;;4983632;28;20033;-79
2022/08/26 08:48:25;;;;;;;15.40;6.93;;;28.80;53.80;;;;;;4986341;28;20495;-79
2022/08/26 08:51:15;;;;;;;13.07;7.32;;;29.10;53.60;;;;;;4967680;28;20905;-79
2022/08/26 08:53:43;;;;;;;11.90;7.27;;;29.30;53.20;;;;;;4980561;28;20042;-79
2022/08/26 08:56:22;;;;;;;14.23;6.90;;;29.50;52.80;;;;;;4996447;28;20033;-79
2022/08/26 08:59:00;;;;;;;13.65;6.88;;;29.60;52.20;;;;;;4990358;28;20037;-79
2022/08/26 09:01:34;;;;;;;9.95;6.45;;;29.80;51.70;;;;;;4993798;28;20057;-79
2022/08/26 09:04:28;;;;;;;12.57;6.40;;;30.10;51.60;;;;;;4999277;28;20042;-79
2022/08/26 09:06:55;;;;;;;12.23;6.78;;;30.30;51.10;;;;;;4997217;28;20048;-79
2022/08/26 09:09:36;;;;;;;14.30;7.32;;;30.50;51.00;;;;;;5017537;28;20041;-79
2022/08/26 09:12:02;;;;;;;13.57;7.05;;;30.70;50.30;;;;;;4997450;28;20629;-79
2022/08/26 09:14:27;;;;;;;15.20;7.53;;;30.80;50.30;;;;;;4964252;28;20133;-79
2022/08/26 09:17:31;;;;;;;9.43;6.72;;;31.00;49.90;;;;;;4964361;28;20038;-79
2022/08/26 09:20:11;;;;;;;14.52;6.40;;;31.20;49.00;;;;;;4983033;28;21263;-81
2022/08/26 09:22:36;;;;;;;10.48;6.15;;;31.30;48.40;;;;;;4976910;28;20041;-80
2022/08/26 09:25:05;;;;;;;11.93;6.43;;;31.50;48.80;;;;;;4980870;28;20061;-79
2022/08/26 09:27:47;;;;;;;12.60;6.03;;;31.60;48.60;;;;;;4967227;28;20096;-80
2022/08/26 09:30:17;;;;;;;15.50;7.55;;;31.80;47.70;;;;;;4964233;28;20124;-80
2022/08/26 09:32:43;;;;;;;13.15;6.50;;;32.00;47.80;;;;;;4964650;28;20038;-80
2022/08/26 09:35:31;;;;;;;11.32;5.85;;;32.10;47.40;;;;;;4978677;28;20022;-79
2022/08/26 09:37:57;;;;;;;14.73;6.25;;;32.40;46.80;;;;;;4991307;28;20037;-80
2022/08/26 09:40:30;;;;;;;13.55;6.72;;;32.60;46.90;;;;;;4983176;28;20030;-80
2022/08/26 09:43:14;;;;;;;10.50;5.80;;;32.80;46.20;;;;;;4987765;28;20057;-80
2022/08/26 09:45:42;;;;;;;14.20;6.15;;;33.00;45.90;;;;;;5000363;28;20042;-81
2022/08/26 09:48:07;;;;;;;10.90;6.20;;;33.20;45.80;;;;;;4965507;28;20030;-80
2022/08/26 09:50:38;;;;;;;14.98;6.40;;;33.40;45.50;;;;;;4993836;28;20044;-80
2022/08/26 09:53:27;;;;;;;10.30;5.97;;;33.50;45.00;;;;;;4990977;28;20033;-80
2022/08/26 09:56:14;;;;;;;15.77;5.95;;;33.70;44.20;;;;;;5007630;28;20029;-80
2022/08/26 09:58:41;;;;;;;11.60;5.82;;;33.90;43.70;;;;;;4970300;28;20046;-80
2022/08/26 10:01:34;;;;;;;8.30;5.75;;;34.10;44.10;;;;;;4969119;28;20030;-80
2022/08/26 10:04:09;;;;;;;11.95;6.10;;;34.30;43.20;;;;;;5009539;28;20037;-80
2022/08/26 10:06:39;;;;;;;14.13;5.30;;;34.50;42.90;;;;;;4996058;28;20034;-81
2022/08/26 10:09:05;;;;;;;13.55;6.38;;;34.60;42.80;;;;;;4974297;28;20080;-81
2022/08/26 10:11:45;;;;;;;12.85;6.00;;;34.70;42.70;;;;;;4965122;28;20549;-80
2022/08/26 10:14:30;;;;;;;12.27;5.68;;;34.90;41.50;;;;;;5016075;28;20038;-80
2022/08/26 10:16:56;;;;;;;9.43;5.75;;;34.90;42.00;;;;;;4981562;28;20120;-80
2022/08/26 10:19:25;;;;;;;12.45;5.82;;;35.10;41.60;;;;;;5007231;28;20448;-81
2022/08/26 10:22:17;;;;;;;15.32;6.30;;;35.20;41.10;;;;;;4965459;28;20106;-82
2022/08/26 10:24:46;;;;;;;8.25;5.45;;;35.30;41.00;;;;;;4972078;28;20039;-82
2022/08/26 10:27:46;;;;;;;10.30;5.10;;;35.50;40.60;;;;;;4967833;28;20054;-82
2022/08/26 10:30:14;;;;;;;8.27;5.60;;;35.60;39.50;;;;;;4986028;28;20096;-82
2022/08/26 10:32:59;;;;;;;10.15;6.07;;;35.60;40.80;;;;;;4976197;28;20044;-81
2022/08/26 10:35:25;;;;;;;9.75;5.10;;;35.60;39.90;;;;;;5001673;28;20041;-81
2022/08/26 10:37:55;;;;;;;10.07;5.70;;;35.60;39.90;;;;;;4998230;28;20472;-81
2022/08/26 10:40:29;;;;;;;10.20;5.70;;;35.60;39.50;;;;;;4983402;28;20026;-81
2022/08/26 10:42:56;;;;;;;8.55;5.65;;;35.70;39.20;;;;;;4996173;28;20687;-82
2022/08/26 10:45:27;;;;;;;12.43;5.72;;;35.80;39.40;;;;;;4996509;28;20615;-81
2022/08/26 10:47:58;;;;;;;17.35;5.97;;;36.10;39.20;;;;;;4960171;28;20121;-81
2022/08/26 10:50:38;;;;;;;14.02;6.47;;;36.20;38.70;;;;;;5004101;28;20030;-81
2022/08/26 10:53:09;;;;;;;11.27;5.30;;;36.30;38.60;;;;;;4995823;28;20050;-81
2022/08/26 10:55:39;;;;;;;9.07;5.32;;;36.30;38.20;;;;;;5001335;28;20121;-82
2022/08/26 10:58:23;;;;;;;8.35;5.82;;;36.30;38.20;;;;;;4986587;28;20029;-81
2022/08/26 11:04:08;;;;;;;12.98;6.00;;;36.30;37.90;;;;;;4987281;28;20415;-81
2022/08/26 11:06:34;;;;;;;10.98;5.18;;;36.30;38.30;;;;;;4986468;28;20034;-81
2022/08/26 11:09:02;;;;;;;10.43;4.88;;;36.20;37.90;;;;;;4955755;28;20100;-81
2022/08/26 11:11:40;;;;;;;10.98;5.05;;;36.20;37.80;;;;;;4999336;28;20037;-82
2022/08/26 11:14:05;;;;;;;10.73;4.57;;;36.30;37.40;;;;;;5002693;28;20547;-81
2022/08/26 11:16:41;;;;;;;14.65;5.43;;;36.40;37.60;;;;;;5011704;28;20103;-83
2022/08/26 11:19:08;;;;;;;12.82;5.25;;;36.60;37.10;;;;;;4972210;28;20436;-81
2022/08/26 11:21:51;;;;;;;13.73;4.93;;;36.50;37.00;;;;;;4973387;28;20152;-83
2022/08/26 11:24:38;;;;;;;9.57;4.82;;;36.50;36.30;;;;;;5000296;28;20045;-81
2022/08/26 11:27:03;;;;;;;14.55;5.20;;;36.30;36.30;;;;;;5001867;28;20034;-80
2022/08/26 11:29:58;;;;;;;11.95;5.50;;;36.30;36.80;;;;;;4997486;28;20049;-81
2022/08/26 11:32:32;;;;;;;12.07;4.95;;;36.20;36.50;;;;;;4965012;28;20034;-81
2022/08/26 11:35:03;;;;;;;11.20;4.68;;;36.20;36.70;;;;;;5000059;28;20563;-82
2022/08/26 11:37:32;;;;;;;11.40;5.72;;;36.20;36.90;;;;;;4965454;28;20435;-81
2022/08/26 11:39:57;;;;;;;12.98;5.30;;;36.20;36.90;;;;;;4972482;28;20665;-81
2022/08/26 11:42:37;;;;;;;13.57;5.85;;;36.20;36.80;;;;;;4989454;28;20046;-81
2022/08/26 11:45:15;;;;;;;15.27;5.40;;;36.20;36.80;;;;;;4996938;28;20048;-84
2022/08/26 11:47:40;;;;;;;11.48;5.15;;;36.20;36.60;;;;;;4988617;28;20511;-83
2022/08/26 11:50:08;;;;;;;12.80;5.05;;;36.20;36.90;;;;;;4969682;28;20092;-81
2022/08/26 11:52:34;;;;;;;11.35;5.18;;;36.20;36.80;;;;;;4977974;28;20034;-81
2022/08/26 11:55:04;;;;;;;15.85;5.05;;;36.20;36.70;;;;;;4990655;28;20034;-79
2022/08/26 11:57:30;;;;;;;9.57;4.70;;;36.10;36.60;;;;;;5004070;28;20112;-82
2022/08/26 11:59:56;;;;;;;15.35;5.15;;;36.10;36.60;;;;;;4968314;28;20036;-79
2022/08/26 12:02:21;;;;;;;14.38;4.88;;;36.10;36.70;;;;;;4991301;28;20049;-79
2022/08/26 12:04:47;;;;;;;12.68;4.88;;;36.00;36.50;;;;;;4977672;28;20053;-79
2022/08/26 12:07:13;;;;;;;11.57;4.75;;;36.00;36.40;;;;;;4991328;28;20133;-78
2022/08/26 12:09:50;;;;;;;11.90;5.30;;;36.00;36.40;;;;;;4992488;28;22002;-79
2022/08/26 12:12:41;;;;;;;8.82;4.45;;;36.10;35.90;;;;;;4972039;28;20037;-79
2022/08/26 12:15:12;;;;;;;;;;;36.20;35.80;;;;;;4992712;28;20548;-79
2022/08/26 12:17:38;;;;;;;14.82;5.00;;;36.30;36.20;;;;;;4991362;28;20011;-78
2022/08/26 12:20:05;;;;;;;12.82;5.00;;;36.30;36.10;;;;;;4996579;28;20626;-80
2022/08/26 12:22:34;;;;;;;20.00;4.78;;;36.20;35.70;;;;;;5013853;28;20038;-79
2022/08/26 12:25:02;;;;;;;12.93;4.35;;;36.20;35.60;;;;;;5001583;28;20068;-79
2022/08/26 12:27:33;;;;;;;17.10;4.95;;;36.00;35.60;;;;;;4981488;28;20038;-79
2022/08/26 12:30:22;;;;;;;17.77;4.85;;;35.80;35.70;;;;;;4967481;28;20048;-80
2022/08/26 12:32:53;;;;;;;15.77;4.40;;;35.50;35.80;;;;;;5004778;28;20065;-81
2022/08/26 12:35:19;;;;;;;12.02;4.25;;;35.10;36.40;;;;;;4986304;28;20398;-81
2022/08/26 12:37:47;;;;;;;7.22;3.50;;;34.70;36.90;;;;;;5000879;28;20041;-79
2022/08/26 12:40:43;;;;;;;7.00;2.70;;;34.30;37.40;;;;;;4988442;28;20091;-81
2022/08/26 12:43:09;;;;;;;7.88;3.17;;;33.80;37.90;;;;;;4996373;28;20030;-80
2022/08/26 12:45:54;;;;;;;7.15;2.78;;;33.40;38.40;;;;;;4977657;28;20038;-80
2022/08/26 12:48:24;;;;;;;10.80;4.20;;;33.00;38.80;;;;;;4984584;28;20026;-80
2022/08/26 12:50:50;;;;;;;13.02;4.28;;;32.70;39.20;;;;;;4986272;28;20036;-81
2022/08/26 12:53:18;;;;;;;7.55;3.25;;;32.40;39.70;;;;;;4976352;28;20484;-80
2022/08/26 12:55:49;;;;;;;6.35;3.22;;;32.00;40.10;;;;;;4995692;28;20041;-81